LEVX/VGO METAR and TAF weather

Enter ICAO airport designator
Station Type Date Time Source
LEVX METAR 2021/05/14 07:00 UTC NOAA

LEVX 140700Z 21005KT 160V240 9999 SCT029 09/08 Q1020 TEMPO 0800 BCFG


Station Type Date Time Source
LEVX Decoded METAR 2021/05/14 07:00 UTC NOAA

Vigo / Peinador, Spain (LEVX) 42-13N 008-38W 255M
May 14, 2021 - 03:00 AM EDT / 2021.05.14 0700 UTC
Wind: from the SSW (210 degrees) at 6 MPH (5 KT) (direction variable):0
Visibility: greater than 7 mile(s):0
Sky conditions: partly cloudy
Temperature: 48 F (9 C)
Dew Point: 46 F (8 C)
Relative Humidity: 93%
Pressure (altimeter): 30.12 in. Hg (1020 hPa)
ob: LEVX 140700Z 21005KT 160V240 9999 SCT029 09/08 Q1020 TEMPO 0800 BCFG
cycle: 7

Station Type Date Time Source
LEVX TAF 2021/05/14 06:27 UTC NOAA

TAF LEVX 140500Z 1406/1506 VRB05KT 8000 SCT010 BKN020 TX16/1413Z TN06/1406Z
TEMPO 1406/1409 3000 BR BKN005 BKN010
TEMPO 1406/1409 0800 BCFG BKN001
TEMPO 1406/1409 0300 BCFG BKN001
TEMPO 1411/1418 28010KT
TEMPO 1420/1506 3000 BR BKN005 BKN010 PROB40
TEMPO 1421/1506 0800 BCFG BKN002

Example: see airport list